createdAt,value
2018-02-13T00:01:59.138Z,101277.36
2018-02-13T00:04:27.707Z,101282.08
2018-02-13T00:06:56.030Z,101281.61
2018-02-13T00:09:24.376Z,101282.58
2018-02-13T00:11:52.848Z,101283.91
2018-02-13T00:14:21.229Z,101283.11
2018-02-13T00:16:49.591Z,101283.69
2018-02-13T00:19:17.924Z,101284.56
2018-02-13T00:21:46.285Z,101286.52
2018-02-13T00:24:14.990Z,101288.27
2018-02-13T00:26:43.288Z,101282.14
2018-02-13T00:29:12.383Z,101288.05
2018-02-13T00:31:40.777Z,101282.66
2018-02-13T00:34:09.894Z,101287.46
2018-02-13T00:36:38.252Z,101284.73
2018-02-13T00:39:07.429Z,101282.89
2018-02-13T00:41:35.811Z,101285.46
2018-02-13T00:44:04.889Z,101288.27
2018-02-13T00:46:33.698Z,101290.91
2018-02-13T00:49:02.009Z,101293.14
2018-02-13T00:51:30.419Z,101284.28
2018-02-13T00:53:58.938Z,101289.19
2018-02-13T00:56:27.299Z,101297.31
2018-02-13T00:58:55.653Z,101293.63
2018-02-13T01:01:24.062Z,101289.04
2018-02-13T01:03:52.382Z,101286.58
2018-02-13T01:06:20.692Z,101288.30
2018-02-13T01:08:49.443Z,101284.91
2018-02-13T01:11:17.780Z,101282.75
2018-02-13T01:13:46.091Z,101283.95
2018-02-13T01:16:15.263Z,101293.35
2018-02-13T01:18:43.602Z,101288.30
2018-02-13T01:21:11.983Z,101289.62
2018-02-13T01:23:40.428Z,101291.91
2018-02-13T01:26:09.582Z,101284.75
2018-02-13T01:28:38.077Z,101285.51
2018-02-13T01:31:06.758Z,101285.91
2018-02-13T01:33:35.073Z,101288.66
2018-02-13T01:36:03.387Z,101287.95
2018-02-13T01:38:31.778Z,101285.19
2018-02-13T01:41:00.158Z,101294.11
2018-02-13T01:43:28.448Z,101284.09
2018-02-13T01:45:56.765Z,101286.70
2018-02-13T01:48:25.870Z,101285.24
2018-02-13T01:50:54.185Z,101286.48
2018-02-13T01:53:23.065Z,101292.02
2018-02-13T01:55:51.392Z,101302.36
2018-02-13T01:58:20.526Z,101295.83
2018-02-13T02:00:48.929Z,101298.53
2018-02-13T02:03:17.229Z,101289.68
2018-02-13T02:05:45.613Z,101292.69
2018-02-13T02:08:13.989Z,101293.20
2018-02-13T02:10:42.316Z,101292.59
2018-02-13T02:13:10.659Z,101290.30
2018-02-13T02:15:39.417Z,101294.02
2018-02-13T02:18:07.788Z,101293.73
2018-02-13T02:20:36.300Z,101299.36
2018-02-13T02:23:04.673Z,101295.41
2018-02-13T02:25:33.017Z,101299.26
2018-02-13T02:28:01.327Z,101299.01
2018-02-13T02:30:29.707Z,101299.67
2018-02-13T02:32:58.853Z,101292.61
2018-02-13T02:35:27.164Z,101289.31
2018-02-13T02:37:55.700Z,101287.33
2018-02-13T02:40:24.029Z,101290.41
2018-02-13T02:43:06.116Z,101293.53
2018-02-13T02:45:34.460Z,101297.43
2018-02-13T02:48:02.812Z,101291.02
2018-02-13T02:50:31.258Z,101298.66
2018-02-13T02:52:59.603Z,101299.66
2018-02-13T02:55:27.945Z,101295.41
2018-02-13T02:57:57.717Z,101295.78
2018-02-13T03:00:26.039Z,101295.49
2018-02-13T03:02:54.370Z,101292.34
2018-02-13T03:05:22.732Z,101291.55
2018-02-13T03:07:51.090Z,101292.61
2018-02-13T03:10:19.434Z,101297.14
2018-02-13T03:12:47.814Z,101293.14
2018-02-13T03:15:16.909Z,101299.23
2018-02-13T03:17:46.018Z,101292.53
2018-02-13T03:20:14.797Z,101289.75
2018-02-13T03:22:43.134Z,101292.13
2018-02-13T03:25:11.462Z,101296.91
2018-02-13T03:27:40.604Z,101295.08
2018-02-13T03:30:08.912Z,101301.96
2018-02-13T03:32:37.281Z,101300.16
2018-02-13T03:35:05.675Z,101305.06
2018-02-13T03:37:34.040Z,101302.71
2018-02-13T03:40:02.371Z,101302.94
2018-02-13T03:42:31.121Z,101305.77
2018-02-13T03:44:59.470Z,101298.78
2018-02-13T03:47:27.788Z,101298.66
2018-02-13T03:49:56.911Z,101297.52
2018-02-13T03:52:25.240Z,101298.73
2018-02-13T03:54:53.566Z,101295.05
2018-02-13T03:57:21.940Z,101290.23
2018-02-13T03:59:50.320Z,101297.30
2018-02-13T04:02:18.660Z,101290.17
2018-02-13T04:04:47.691Z,101289.54
2018-02-13T04:07:16.072Z,101285.11
2018-02-13T04:09:44.408Z,101290.84
2018-02-13T04:12:12.751Z,101291.32
2018-02-13T04:14:41.060Z,101284.80
2018-02-13T04:17:09.384Z,101283.30
2018-02-13T04:19:37.931Z,101281.81
2018-02-13T04:22:06.379Z,101288.79
2018-02-13T04:24:34.727Z,101292.77
2018-02-13T04:27:03.273Z,101287.73
2018-02-13T04:29:33.093Z,101289.81
2018-02-13T04:32:01.410Z,101294.03
2018-02-13T04:34:29.754Z,101293.52
2018-02-13T04:36:58.082Z,101294.39
2018-02-13T04:39:26.439Z,101294.73
2018-02-13T04:41:54.809Z,101287.25
2018-02-13T04:44:23.880Z,101294.25
2018-02-13T04:46:52.219Z,101282.27
2018-02-13T04:49:21.036Z,101281.41
2018-02-13T04:51:50.106Z,101280.80
2018-02-13T04:54:18.591Z,101282.09
2018-02-13T04:56:46.987Z,101284.43
2018-02-13T04:59:15.304Z,101281.95
2018-02-13T05:01:43.695Z,101283.02
2018-02-13T05:04:12.024Z,101288.56
2018-02-13T05:06:40.317Z,101287.53
2018-02-13T05:09:08.652Z,101286.78
2018-02-13T05:11:37.490Z,101284.84
2018-02-13T05:14:05.850Z,101288.16
2018-02-13T05:16:34.270Z,101285.24
2018-02-13T05:19:02.617Z,101285.77
2018-02-13T05:21:31.704Z,101292.28
2018-02-13T05:24:00.006Z,101291.95
2018-02-13T05:26:29.108Z,101289.67
2018-02-13T05:28:58.243Z,101291.48
2018-02-13T05:31:26.580Z,101290.55
2018-02-13T05:33:55.884Z,101293.69
2018-02-13T05:36:24.979Z,101288.11
2018-02-13T05:38:54.064Z,101287.80
2018-02-13T05:41:22.756Z,101290.47
2018-02-13T05:43:51.092Z,101289.72
2018-02-13T05:46:19.412Z,101290.89
2018-02-13T05:48:47.760Z,101291.57
2018-02-13T05:51:16.068Z,101284.68
2018-02-13T05:53:44.377Z,101292.03
2018-02-13T05:56:12.791Z,101293.16
2018-02-13T05:58:41.151Z,101304.20
2018-02-13T06:01:09.461Z,101300.67
2018-02-13T06:03:37.810Z,101305.52
2018-02-13T06:06:06.136Z,101308.72
2018-02-13T06:08:34.487Z,101318.71
2018-02-13T06:11:02.844Z,101311.92
2018-02-13T06:13:31.304Z,101316.98
2018-02-13T06:16:00.390Z,101316.75
2018-02-13T06:18:29.802Z,101317.92
2018-02-13T06:20:58.124Z,101315.57
2018-02-13T06:23:26.494Z,101319.00
2018-02-13T06:25:54.868Z,101308.58
2018-02-13T06:28:23.178Z,101311.34
2018-02-13T06:30:51.502Z,101299.26
2018-02-13T06:33:19.863Z,101306.40
2018-02-13T06:35:48.168Z,101303.94
2018-02-13T06:38:16.520Z,101296.16
2018-02-13T06:40:45.699Z,101304.58
2018-02-13T06:43:14.041Z,101298.96
2018-02-13T06:45:43.363Z,101297.38
2018-02-13T06:48:11.743Z,101294.59
2018-02-13T06:50:40.069Z,101297.21
2018-02-13T06:53:08.409Z,101301.87
2018-02-13T06:55:36.784Z,101294.41
2018-02-13T06:58:05.158Z,101302.08
2018-02-13T07:00:33.474Z,101305.66
2018-02-13T07:03:02.945Z,101305.39
2018-02-13T07:05:31.260Z,101304.53
2018-02-13T07:08:00.362Z,101307.80
2018-02-13T07:10:29.767Z,101306.61
2018-02-13T07:12:58.214Z,101311.37
2018-02-13T07:15:26.544Z,101312.58
2018-02-13T07:17:54.886Z,101312.05
2018-02-13T07:20:23.224Z,101323.01
2018-02-13T07:22:51.587Z,101319.80
2018-02-13T07:25:20.457Z,101323.11
2018-02-13T07:27:48.752Z,101324.12
2018-02-13T07:30:17.077Z,101326.77
2018-02-13T07:32:45.447Z,101329.42
2018-02-13T07:35:13.775Z,101328.80
2018-02-13T07:37:42.132Z,101325.70
2018-02-13T07:40:11.240Z,101320.48
2018-02-13T07:42:40.345Z,101325.19
2018-02-13T07:45:08.668Z,101322.97
2018-02-13T07:47:37.789Z,101322.05
2018-02-13T07:50:06.180Z,101323.91
2018-02-13T07:52:35.262Z,101322.38
2018-02-13T07:55:03.608Z,101323.92
2018-02-13T07:57:31.912Z,101321.94
2018-02-13T08:00:00.217Z,101325.61
2018-02-13T08:02:28.603Z,101319.22
2018-02-13T08:04:56.961Z,101321.70
2018-02-13T08:07:25.299Z,101324.63
2018-02-13T08:09:54.762Z,101325.33
2018-02-13T08:12:23.104Z,101330.74
2018-02-13T08:14:51.458Z,101324.53
2018-02-13T08:17:19.808Z,101319.19
2018-02-13T08:19:48.165Z,101320.62
2018-02-13T08:22:17.266Z,101322.73
2018-02-13T08:24:46.400Z,101328.17
2018-02-13T08:27:14.740Z,101321.55
2018-02-13T08:29:43.826Z,101319.13
2018-02-13T08:32:12.721Z,101321.59
2018-02-13T08:34:41.813Z,101315.17
2018-02-13T08:37:10.957Z,101311.67
2018-02-13T08:39:39.301Z,101307.55
2018-02-13T08:42:08.443Z,101305.77
2018-02-13T08:44:36.758Z,101307.30
2018-02-13T08:47:05.126Z,101308.93
2018-02-13T08:49:33.471Z,101305.69
2018-02-13T08:52:01.820Z,101298.97
2018-02-13T08:54:30.594Z,101304.80
2018-02-13T08:56:59.747Z,101302.02
2018-02-13T08:59:28.207Z,101305.25
2018-02-13T09:01:56.598Z,101301.60
2018-02-13T09:04:24.937Z,101302.25
2018-02-13T09:06:54.097Z,101299.56
2018-02-13T09:09:22.404Z,101293.03
2018-02-13T09:11:50.772Z,101298.30
2018-02-13T09:14:19.080Z,101301.73
2018-02-13T09:16:47.751Z,101297.30
2018-02-13T09:19:16.849Z,101298.73
2018-02-13T09:21:45.934Z,101295.88
2018-02-13T09:24:14.314Z,101295.37
2018-02-13T09:26:42.667Z,101294.37
2018-02-13T09:29:11.004Z,101290.03
2018-02-13T09:31:39.349Z,101286.25
2018-02-13T09:34:07.708Z,101285.58
2018-02-13T09:36:36.000Z,101289.52
2018-02-13T09:39:04.515Z,101286.77
2018-02-13T09:41:33.582Z,101274.19
2018-02-13T09:44:01.927Z,101291.47
2018-02-13T09:46:30.291Z,101297.50
2018-02-13T09:48:58.605Z,101292.08
2018-02-13T09:51:27.047Z,101291.63
2018-02-13T09:53:55.400Z,101285.44
2018-02-13T09:56:24.506Z,101285.17
2018-02-13T09:58:53.396Z,101286.41
2018-02-13T10:01:22.182Z,101280.64
2018-02-13T10:03:50.515Z,101285.31
2018-02-13T10:06:18.863Z,101283.59
2018-02-13T10:08:47.234Z,101282.62
2018-02-13T10:11:15.556Z,101289.95
2018-02-13T10:13:43.907Z,101277.50
2018-02-13T10:16:12.273Z,101273.35
2018-02-13T10:18:40.584Z,101276.13
2018-02-13T10:21:08.926Z,101274.61
2018-02-13T10:23:37.591Z,101280.17
2018-02-13T10:26:05.973Z,101287.64
2018-02-13T10:28:34.334Z,101283.84
2018-02-13T10:31:03.461Z,101284.87
2018-02-13T10:33:31.786Z,101282.72
2018-02-13T10:36:00.100Z,101284.34
2018-02-13T10:38:29.242Z,101278.38
2018-02-13T10:40:57.767Z,101287.91
2018-02-13T10:43:26.880Z,101289.09
2018-02-13T10:45:56.496Z,101295.89
2018-02-13T10:48:25.686Z,101283.09
2018-02-13T10:50:54.788Z,101282.39
2018-02-13T10:53:23.900Z,101272.84
2018-02-13T10:55:52.230Z,101286.70
2018-02-13T10:58:20.525Z,101278.50
2018-02-13T11:00:54.502Z,101281.36
2018-02-13T11:03:22.891Z,101275.31
2018-02-13T11:05:51.249Z,101268.47
2018-02-13T11:08:20.290Z,101275.09
2018-02-13T11:10:49.384Z,101269.65
2018-02-13T11:13:18.531Z,101261.79
2018-02-13T11:15:46.864Z,101260.83
2018-02-13T11:18:15.191Z,101270.77
2018-02-13T11:20:43.516Z,101267.13
2018-02-13T11:23:12.666Z,101264.00
2018-02-13T11:25:41.032Z,101267.08
2018-02-13T11:28:09.372Z,101258.62
2018-02-13T11:30:39.000Z,101264.33
2018-02-13T11:33:07.349Z,101254.72
2018-02-13T11:35:35.681Z,101257.20
2018-02-13T11:38:04.083Z,101258.27
2018-02-13T11:40:33.185Z,101255.64
2018-02-13T11:43:01.632Z,101249.86
2018-02-13T11:45:29.992Z,101253.22
2018-02-13T11:47:58.328Z,101248.55
2018-02-13T11:50:26.692Z,101249.66
2018-02-13T11:52:55.325Z,101260.84
2018-02-13T11:55:23.667Z,101252.38
2018-02-13T11:57:52.023Z,101249.31
2018-02-13T12:00:21.021Z,101247.96
2018-02-13T12:02:49.373Z,101250.29
2018-02-13T12:05:17.739Z,101249.59
2018-02-13T12:07:46.167Z,101237.42
2018-02-13T12:10:14.553Z,101254.34
2018-02-13T12:12:43.090Z,101241.32
2018-02-13T12:15:11.698Z,101237.91
2018-02-13T12:17:40.069Z,101238.86
2018-02-13T12:20:08.394Z,101237.17
2018-02-13T12:22:36.984Z,101237.34
2018-02-13T12:25:06.113Z,101227.83
2018-02-13T12:27:34.478Z,101229.67
2018-02-13T12:30:03.639Z,101235.27
2018-02-13T12:32:31.955Z,101229.66
2018-02-13T12:35:01.081Z,101220.26
2018-02-13T12:37:29.664Z,101227.06
2018-02-13T12:39:58.056Z,101218.88
2018-02-13T12:42:26.408Z,101210.94
2018-02-13T12:44:54.775Z,101204.70
2018-02-13T12:47:23.888Z,101208.21
2018-02-13T12:49:52.243Z,101209.36
2018-02-13T12:52:20.864Z,101209.13
2018-02-13T12:54:49.207Z,101212.72
2018-02-13T12:57:17.599Z,101208.33
2018-02-13T12:59:46.626Z,101205.89
2018-02-13T13:02:15.523Z,101205.98
2018-02-13T13:04:43.876Z,101195.84
2018-02-13T13:07:12.318Z,101201.59
2018-02-13T13:09:40.627Z,101192.67
2018-02-13T13:12:08.962Z,101188.30
2018-02-13T13:14:37.324Z,101191.84
2018-02-13T13:17:05.695Z,101184.88
2018-02-13T13:19:34.112Z,101186.53
2018-02-13T13:22:02.567Z,101190.78
2018-02-13T13:24:31.735Z,101170.07
2018-02-13T13:27:00.061Z,101178.95
2018-02-13T13:29:28.393Z,101167.77
2018-02-13T13:31:57.028Z,101167.95
2018-02-13T13:34:25.380Z,101173.44
2018-02-13T13:36:54.525Z,101175.28
2018-02-13T13:39:23.633Z,101179.52
2018-02-13T13:41:52.215Z,101178.89
2018-02-13T13:44:21.922Z,101174.68
2018-02-13T13:46:50.325Z,101170.31
2018-02-13T13:49:18.660Z,101169.55
2018-02-13T13:51:47.007Z,101167.77
2018-02-13T13:54:15.367Z,101164.64
2018-02-13T13:56:43.725Z,101151.80
2018-02-13T13:59:12.093Z,101159.98
2018-02-13T14:01:41.195Z,101157.59
2018-02-13T14:04:10.283Z,101157.14
2018-02-13T14:06:39.914Z,101160.18
2018-02-13T14:09:08.221Z,101157.66
2018-02-13T14:11:36.582Z,101163.78
2018-02-13T14:14:04.973Z,101157.38
2018-02-13T14:16:33.324Z,101159.06
2018-02-13T14:19:02.075Z,101153.39
2018-02-13T14:21:31.216Z,101152.13
2018-02-13T14:23:59.600Z,101160.74
2018-02-13T14:26:27.932Z,101164.81
2018-02-13T14:28:56.620Z,101165.03
2018-02-13T14:31:24.935Z,101163.19
2018-02-13T14:33:53.408Z,101165.27
2018-02-13T14:36:21.817Z,101163.25
2018-02-13T14:38:50.236Z,101164.17
2018-02-13T14:41:18.594Z,101164.27
2018-02-13T14:43:46.960Z,101161.31
2018-02-13T14:46:15.295Z,101164.64
2018-02-13T14:48:44.397Z,101168.39
2018-02-13T14:51:13.711Z,101168.33
2018-02-13T14:53:42.029Z,101171.74
2018-02-13T14:56:10.376Z,101169.56
2018-02-13T14:58:38.722Z,101167.70
2018-02-13T15:01:07.120Z,101164.52
2018-02-13T15:03:36.195Z,101170.61
2018-02-13T15:06:05.666Z,101167.09
2018-02-13T15:08:34.024Z,101169.32
2018-02-13T15:11:02.347Z,101177.00
2018-02-13T15:13:30.970Z,101178.52
2018-02-13T15:15:59.283Z,101175.42
2018-02-13T15:18:27.664Z,101179.08
2018-02-13T15:20:56.045Z,101190.06
2018-02-13T15:23:25.186Z,101183.66
2018-02-13T15:25:54.283Z,101181.36
2018-02-13T15:28:23.388Z,101187.15
2018-02-13T15:30:52.516Z,101187.67
2018-02-13T15:33:20.877Z,101190.88
2018-02-13T15:35:49.559Z,101199.81
2018-02-13T15:38:17.963Z,101200.09
2018-02-13T15:40:46.275Z,101203.44
2018-02-13T15:43:15.192Z,101196.44
2018-02-13T15:45:44.295Z,101191.91
2018-02-13T15:48:13.430Z,101189.52
2018-02-13T15:50:41.765Z,101196.79
2018-02-13T15:53:10.872Z,101197.89
2018-02-13T15:55:39.204Z,101209.45
2018-02-13T15:58:08.095Z,101206.52
2018-02-13T16:00:36.406Z,101214.36
2018-02-13T16:03:04.717Z,101216.59
2018-02-13T16:05:33.137Z,101217.94
2018-02-13T16:08:01.710Z,101219.22
2018-02-13T16:10:30.016Z,101224.57
2018-02-13T16:12:59.177Z,101224.75
2018-02-13T16:15:27.460Z,101227.91
2018-02-13T16:17:55.811Z,101232.17
2018-02-13T16:20:24.353Z,101237.64
2018-02-13T16:22:52.675Z,101236.00
2018-02-13T16:25:20.975Z,101235.84
2018-02-13T16:27:49.315Z,101235.81
2018-02-13T16:30:17.695Z,101240.65
2018-02-13T16:32:46.029Z,101236.36
2018-02-13T16:35:14.374Z,101240.84
2018-02-13T16:37:42.694Z,101245.30
2018-02-13T16:40:11.009Z,101238.80
2018-02-13T16:42:39.954Z,101240.13
2018-02-13T16:45:08.269Z,101240.00
2018-02-13T16:47:36.587Z,101249.73
2018-02-13T16:50:05.681Z,101248.62
2018-02-13T16:52:34.039Z,101253.59
2018-02-13T16:55:02.357Z,101251.74
2018-02-13T16:57:30.718Z,101253.37
2018-02-13T16:59:59.825Z,101255.16
2018-02-13T17:02:28.203Z,101257.27
2018-02-13T17:04:57.523Z,101261.28
2018-02-13T17:07:25.867Z,101259.97
2018-02-13T17:09:54.186Z,101264.30
2018-02-13T17:12:22.560Z,101265.69
2018-02-13T17:14:50.874Z,101263.24
2018-02-13T17:17:19.210Z,101267.78
2018-02-13T17:19:47.552Z,101271.08
2018-02-13T17:22:15.907Z,101270.04
2018-02-13T17:24:44.328Z,101271.93
2018-02-13T17:27:13.275Z,101274.93
2018-02-13T17:29:41.651Z,101270.53
2018-02-13T17:32:10.740Z,101285.49
2018-02-13T17:34:39.876Z,101280.19
2018-02-13T17:37:08.213Z,101282.92
2018-02-13T17:39:37.343Z,101288.43
2018-02-13T17:42:05.685Z,101289.70
2018-02-13T17:44:34.785Z,101294.48
2018-02-13T17:47:03.865Z,101293.24
2018-02-13T17:49:32.490Z,101299.67
2018-02-13T17:52:00.949Z,101294.38
2018-02-13T17:54:29.275Z,101297.39
2018-02-13T17:56:57.613Z,101294.58
2018-02-13T17:59:26.699Z,101299.66
2018-02-13T18:01:55.788Z,101294.16
2018-02-13T18:04:24.118Z,101298.51
2018-02-13T18:06:52.492Z,101307.34
2018-02-13T18:09:20.832Z,101301.25
2018-02-13T18:11:50.078Z,101297.52
2018-02-13T18:14:18.402Z,101309.03
2018-02-13T18:16:46.843Z,101311.03
2018-02-13T18:19:15.166Z,101309.52
2018-02-13T18:21:43.497Z,101304.67
2018-02-13T18:24:11.813Z,101307.92
2018-02-13T18:26:40.180Z,101310.27
2018-02-13T18:29:08.517Z,101311.61
2018-02-13T18:31:36.837Z,101310.01
2018-02-13T18:34:05.451Z,101313.80
2018-02-13T18:36:34.643Z,101318.58
2018-02-13T18:39:03.746Z,101314.81
2018-02-13T18:41:32.094Z,101311.48
2018-02-13T18:44:00.415Z,101315.02
2018-02-13T18:46:28.859Z,101317.25
2018-02-13T18:48:57.214Z,101318.95
2018-02-13T18:51:25.552Z,101321.86
2018-02-13T18:53:54.059Z,101318.91
2018-02-13T18:56:22.602Z,101323.24
2018-02-13T18:58:51.678Z,101323.92
2018-02-13T19:01:20.029Z,101328.75
2018-02-13T19:03:48.416Z,101324.40
2018-02-13T19:06:16.742Z,101331.34
2018-02-13T19:08:45.845Z,101329.77
2018-02-13T19:11:14.216Z,101328.92
2018-02-13T19:13:43.355Z,101333.33
2018-02-13T19:16:11.918Z,101329.47
2018-02-13T19:18:41.225Z,101335.79
2018-02-13T19:21:09.554Z,101333.95
2018-02-13T19:23:37.933Z,101338.77
2018-02-13T19:26:06.283Z,101333.91
2018-02-13T19:28:34.637Z,101339.77
2018-02-13T19:31:02.978Z,101343.45
2018-02-13T19:33:31.330Z,101338.27
2018-02-13T19:35:59.799Z,101337.78
2018-02-13T19:38:28.144Z,101340.19
2018-02-13T19:40:56.668Z,101339.55
2018-02-13T19:43:25.109Z,101342.88
2018-02-13T19:45:53.819Z,101354.55
2018-02-13T19:48:23.048Z,101341.59
2018-02-13T19:50:51.940Z,101347.11
2018-02-13T19:53:20.312Z,101346.63
2018-02-13T19:55:48.697Z,101345.82
2018-02-13T19:58:17.012Z,101344.48
2018-02-13T20:00:45.323Z,101350.00
2018-02-13T20:03:13.831Z,101349.88
2018-02-13T20:05:42.162Z,101351.91
2018-02-13T20:08:10.489Z,101359.30
2018-02-13T20:10:39.044Z,101351.09
2018-02-13T20:13:07.509Z,101355.05
2018-02-13T20:15:35.906Z,101361.33
2018-02-13T20:18:04.335Z,101362.31
2018-02-13T20:20:32.786Z,101360.62
2018-02-13T20:23:01.335Z,101367.81
2018-02-13T20:25:29.889Z,101367.77
2018-02-13T20:27:58.392Z,101368.45
2018-02-13T20:30:26.837Z,101363.64
2018-02-13T20:32:55.321Z,101371.39
2018-02-13T20:35:23.905Z,101376.28
2018-02-13T20:37:52.277Z,101376.47
2018-02-13T20:40:20.873Z,101376.28
2018-02-13T20:42:49.348Z,101374.34
2018-02-13T20:45:17.748Z,101379.27
2018-02-13T20:47:46.413Z,101376.81
2018-02-13T20:50:16.280Z,101381.77
2018-02-13T20:52:44.712Z,101386.17
2018-02-13T20:55:13.164Z,101388.34
2018-02-13T20:57:41.665Z,101392.78
2018-02-13T21:00:10.161Z,101383.77
2018-02-13T21:02:38.665Z,101391.97
2018-02-13T21:05:07.907Z,101395.72
2018-02-13T21:07:36.452Z,101392.31
2018-02-13T21:10:06.643Z,101398.45
2018-02-13T21:12:35.848Z,101398.56
2018-02-13T21:15:05.054Z,101396.80
2018-02-13T21:17:33.635Z,101400.61
2018-02-13T21:20:02.939Z,101407.00
2018-02-13T21:22:31.337Z,101411.62
2018-02-13T21:24:59.733Z,101408.37
2018-02-13T21:27:28.138Z,101414.39
2018-02-13T21:29:58.023Z,101409.41
2018-02-13T21:32:26.458Z,101410.56
2018-02-13T21:34:54.941Z,101411.73
2018-02-13T21:37:23.423Z,101412.48
2018-02-13T21:39:51.918Z,101414.13
2018-02-13T21:42:20.290Z,101408.17
2018-02-13T21:44:48.753Z,101415.48
2018-02-13T21:47:17.249Z,101413.52
2018-02-13T21:49:45.568Z,101419.53
2018-02-13T21:52:13.921Z,101413.84
2018-02-13T21:54:42.695Z,101413.95
2018-02-13T21:57:11.219Z,101416.72
2018-02-13T21:59:40.485Z,101414.66
2018-02-13T22:02:08.826Z,101413.47
2018-02-13T22:04:37.172Z,101413.95
2018-02-13T22:07:05.513Z,101415.61
2018-02-13T22:09:33.936Z,101416.47
2018-02-13T22:12:02.272Z,101414.28
2018-02-13T22:14:30.619Z,101417.56
2018-02-13T22:16:59.064Z,101412.50
2018-02-13T22:19:28.139Z,101419.60
2018-02-13T22:21:56.542Z,101418.17
2018-02-13T22:24:25.070Z,101422.13
2018-02-13T22:26:54.222Z,101419.02
2018-02-13T22:29:22.565Z,101422.61
2018-02-13T22:31:51.120Z,101425.81
2018-02-13T22:34:19.557Z,101425.95
2018-02-13T22:36:47.866Z,101421.94
2018-02-13T22:39:16.347Z,101428.77
2018-02-13T22:41:44.821Z,101428.81
2018-02-13T22:44:13.171Z,101433.34
2018-02-13T22:46:42.302Z,101427.20
2018-02-13T22:49:10.870Z,101435.55
2018-02-13T22:51:39.729Z,101422.47
2018-02-13T22:54:08.448Z,101428.86
2018-02-13T22:56:36.768Z,101432.58
2018-02-13T22:59:05.184Z,101431.02
2018-02-13T23:01:34.081Z,101428.92
2018-02-13T23:04:02.421Z,101433.26
2018-02-13T23:06:30.762Z,101432.04
2018-02-13T23:08:59.132Z,101437.61
2018-02-13T23:11:28.273Z,101432.55
2018-02-13T23:13:56.577Z,101438.34
2018-02-13T23:16:25.691Z,101444.07
2018-02-13T23:18:54.794Z,101437.55
2018-02-13T23:21:23.882Z,101446.98
2018-02-13T23:23:53.249Z,101448.12
2018-02-13T23:26:21.562Z,101447.88
2018-02-13T23:28:50.044Z,101448.50
2018-02-13T23:31:18.791Z,101447.47
2018-02-13T23:33:47.261Z,101450.01
2018-02-13T23:36:15.899Z,101448.18
2018-02-13T23:38:45.049Z,101447.48
2018-02-13T23:41:13.498Z,101447.02
2018-02-13T23:43:41.832Z,101460.00
2018-02-13T23:46:10.497Z,101463.14
2018-02-13T23:48:38.897Z,101461.80
2018-02-13T23:51:08.887Z,101458.78
2018-02-13T23:53:37.216Z,101452.02
2018-02-13T23:56:06.275Z,101450.23
2018-02-13T23:58:34.677Z,101451.83
